Time;durP1;ratioP1;P1;durP2;ratioP2;P2;SDS_P1;SDS_P2;PMS_P1;PMS_P2;Temp;Humidity;BMP_temperature;BMP_pressure;BME280_temperature;BME280_humidity;BME280_pressure;Samples;Min_cycle;Max_cycle;Signal;HPM_P1;HPM_P2
2021/08/12 00:07:46;;;;;;;4.55;1.88;;;16.90;99.90;;;;;;20630354;28;20046;-44
2021/08/12 00:18:07;;;;;;;4.15;1.80;;;16.80;99.90;;;;;;20645522;28;20045;-44
2021/08/12 00:28:29;;;;;;;5.57;1.83;;;16.70;99.90;;;;;;20639497;28;20058;-45
2021/08/12 00:38:50;;;;;;;9.23;2.42;;;16.60;99.90;;;;;;20648014;28;20054;-45
2021/08/12 00:49:12;;;;;;;5.18;2.13;;;16.50;99.90;;;;;;20657985;28;20069;-44
2021/08/12 00:59:40;;;;;;;3.97;1.83;;;16.60;99.90;;;;;;20641817;28;20513;-45
2021/08/12 01:10:13;;;;;;;4.28;2.38;;;16.50;99.90;;;;;;20666712;28;20034;-44
2021/08/12 01:21:11;;;;;;;6.07;2.33;;;16.40;99.90;;;;;;20636582;28;20046;-44
2021/08/12 01:32:09;;;;;;;4.78;2.28;;;16.30;99.90;;;;;;20690045;28;20045;-44
2021/08/12 01:42:32;;;;;;;6.43;2.25;;;16.30;99.90;;;;;;20609806;28;20052;-44
2021/08/12 01:52:55;;;;;;;7.95;3.80;;;16.30;99.90;;;;;;20635671;28;20049;-44
2021/08/12 02:03:18;;;;;;;8.30;3.97;;;16.20;99.90;;;;;;20639466;28;20047;-44
2021/08/12 02:13:39;;;;;;;10.95;4.93;;;16.40;99.90;;;;;;20640525;28;20054;-45
2021/08/12 02:24:22;;;;;;;9.52;3.80;;;16.70;99.90;;;;;;20636547;28;20045;-44
2021/08/12 02:34:44;;;;;;;8.25;3.50;;;16.80;99.90;;;;;;20638912;28;20657;-44
2021/08/12 02:45:06;;;;;;;10.00;3.75;;;16.80;99.90;;;;;;20621497;28;20073;-44
2021/08/12 02:55:29;;;;;;;8.98;3.85;;;16.70;99.90;;;;;;20634636;28;20049;-44
2021/08/12 03:05:50;;;;;;;13.73;5.03;;;16.70;99.90;;;;;;20635638;28;20039;-44
2021/08/12 03:16:12;;;;;;;11.07;4.68;;;16.60;99.90;;;;;;20635208;28;20156;-45
2021/08/12 03:26:33;;;;;;;13.52;5.60;;;16.50;99.90;;;;;;20634226;28;20603;-45
2021/08/12 03:36:55;;;;;;;8.88;4.68;;;16.30;99.90;;;;;;20636895;28;20076;-44
2021/08/12 03:47:18;;;;;;;14.55;5.03;;;16.20;99.90;;;;;;20633319;28;20057;-44
2021/08/12 03:57:43;;;;;;;11.45;4.78;;;16.10;99.90;;;;;;20636663;28;20045;-44
2021/08/12 04:08:06;;;;;;;11.50;5.25;;;16.20;99.90;;;;;;20639156;28;20046;-45
2021/08/12 04:18:28;;;;;;;9.43;5.10;;;16.40;99.90;;;;;;20636071;28;20042;-44
2021/08/12 04:28:49;;;;;;;11.35;4.97;;;16.50;99.90;;;;;;20652034;28;20580;-44
2021/08/12 04:39:10;;;;;;;12.52;5.68;;;16.40;99.90;;;;;;20648198;28;20074;-44
2021/08/12 04:49:32;;;;;;;8.18;3.85;;;16.40;99.90;;;;;;20642388;28;20061;-44
2021/08/12 04:59:53;;;;;;;10.32;4.32;;;16.60;99.90;;;;;;20648735;28;20446;-44
2021/08/12 05:10:15;;;;;;;13.35;4.72;;;16.80;99.90;;;;;;20648501;28;20030;-44
2021/08/12 05:20:37;;;;;;;9.02;3.88;;;16.70;99.90;;;;;;20644457;28;20046;-44
2021/08/12 05:31:02;;;;;;;10.27;4.57;;;16.80;99.90;;;;;;20653383;28;20052;-45
2021/08/12 05:41:24;;;;;;;10.30;4.38;;;16.80;99.90;;;;;;20651274;28;20410;-44
2021/08/12 05:51:45;;;;;;;11.95;4.18;;;16.90;99.90;;;;;;20654697;28;20493;-44
2021/08/12 06:02:06;;;;;;;10.98;4.30;;;16.80;99.90;;;;;;20662045;28;20053;-45
2021/08/12 06:12:28;;;;;;;11.60;4.72;;;16.90;99.90;;;;;;20667804;28;20046;-44
2021/08/12 06:22:52;;;;;;;8.98;4.40;;;17.00;99.90;;;;;;20673033;28;20061;-44
2021/08/12 06:33:13;;;;;;;9.02;4.43;;;17.30;99.90;;;;;;20672780;28;20034;-44
2021/08/12 06:43:34;;;;;;;12.80;5.88;;;17.70;99.90;;;;;;20676330;28;20041;-44
2021/08/12 06:53:56;;;;;;;10.02;5.60;;;17.70;99.90;;;;;;20675615;28;20082;-44
2021/08/12 07:04:17;;;;;;;12.93;4.82;;;17.90;99.90;;;;;;20678058;28;20053;-45
2021/08/12 07:14:39;;;;;;;9.27;4.10;;;18.10;99.90;;;;;;20678863;28;20042;-44
2021/08/12 07:25:00;;;;;;;11.32;4.60;;;18.30;99.90;;;;;;20677348;28;20030;-44
2021/08/12 07:35:22;;;;;;;11.95;3.50;;;18.50;99.90;;;;;;20671887;28;20053;-44
2021/08/12 07:45:44;;;;;;;7.22;2.85;;;18.90;99.90;;;;;;20686067;28;20041;-44
2021/08/12 07:56:06;;;;;;;5.55;2.55;;;19.20;99.90;;;;;;20686342;28;20054;-45
2021/08/12 08:06:27;;;;;;;8.20;3.03;;;19.20;99.90;;;;;;20668353;28;20070;-45
2021/08/12 08:16:49;;;;;;;5.35;2.72;;;19.60;99.90;;;;;;20676265;28;20050;-45
2021/08/12 08:27:10;;;;;;;6.43;2.30;;;20.00;99.90;;;;;;20672817;28;20492;-45
2021/08/12 08:37:32;;;;;;;10.88;2.28;;;20.30;99.90;;;;;;20684143;28;20057;-45
2021/08/12 08:47:55;;;;;;;3.53;1.83;;;20.70;99.90;;;;;;20686269;28;20088;-45
2021/08/12 08:58:18;;;;;;;3.78;1.30;;;21.30;99.90;;;;;;20689083;28;20082;-45
2021/08/12 09:08:40;;;;;;;3.55;1.25;;;21.60;99.90;;;;;;20696743;28;20504;-45
2021/08/12 09:19:21;;;;;;;3.90;1.58;;;21.90;99.90;;;;;;20644767;28;20077;-45
2021/08/12 09:29:42;;;;;;;3.75;1.55;;;22.10;99.90;;;;;;20632907;28;20541;-45
2021/08/12 09:40:04;;;;;;;7.95;1.98;;;22.30;99.90;;;;;;20633452;28;20050;-45
2021/08/12 09:50:35;;;;;;;4.82;1.90;;;22.70;99.90;;;;;;20641073;28;20525;-45
2021/08/12 10:00:56;;;;;;;2.15;1.10;;;23.10;99.90;;;;;;20639629;28;20391;-45
2021/08/12 10:11:23;;;;;;;3.10;1.70;;;23.50;99.90;;;;;;20617079;28;20406;-45
2021/08/12 10:21:45;;;;;;;2.50;1.03;;;23.50;99.90;;;;;;20628884;28;20533;-45
2021/08/12 10:32:09;;;;;;;6.80;1.70;;;23.90;99.90;;;;;;20633111;28;20086;-45
2021/08/12 10:42:31;;;;;;;7.57;1.27;;;23.90;99.90;;;;;;20631357;28;20042;-45
2021/08/12 10:53:04;;;;;;;1.95;0.90;;;24.10;99.90;;;;;;20629500;28;20114;-45
2021/08/12 11:03:34;;;;;;;2.50;1.10;;;24.30;99.90;;;;;;20630883;28;20038;-45
2021/08/12 11:13:58;;;;;;;2.83;1.35;;;24.50;99.90;;;;;;20632168;28;20050;-45
2021/08/12 11:24:25;;;;;;;2.00;0.90;;;24.70;99.90;;;;;;20632581;28;20050;-45
2021/08/12 11:34:52;;;;;;;3.90;0.93;;;25.20;99.90;;;;;;20633056;28;20089;-45
2021/08/12 11:45:21;;;;;;;3.50;1.00;;;24.20;99.90;;;;;;20633012;28;20494;-45
2021/08/12 11:55:42;;;;;;;4.65;0.95;;;23.90;99.90;;;;;;20629251;28;20042;-45
2021/08/12 12:06:04;;;;;;;2.95;1.45;;;24.40;99.90;;;;;;20628595;28;20066;-45
2021/08/12 12:16:25;;;;;;;1.75;0.90;;;25.00;99.90;;;;;;20633000;28;20088;-45
2021/08/12 12:26:47;;;;;;;4.07;1.15;;;26.10;99.90;;;;;;20633765;28;20233;-46
2021/08/12 12:37:11;;;;;;;3.08;1.10;;;26.00;99.90;;;;;;20632120;28;20559;-45
2021/08/12 12:47:34;;;;;;;5.40;1.80;;;26.10;99.90;;;;;;20649134;28;20089;-45
2021/08/12 12:58:01;;;;;;;5.90;1.30;;;26.20;99.90;;;;;;20651345;28;20477;-45
2021/08/12 13:08:22;;;;;;;1.50;0.82;;;26.60;99.90;;;;;;20649518;28;20045;-46
2021/08/12 13:18:53;;;;;;;2.95;1.20;;;25.90;99.90;;;;;;20653749;28;20699;-46
2021/08/12 13:29:25;;;;;;;4.20;1.60;;;26.40;99.90;;;;;;20654725;28;20419;-45
2021/08/12 13:39:46;;;;;;;3.70;1.52;;;27.30;99.90;;;;;;20655244;28;20042;-46
2021/08/12 13:50:08;;;;;;;3.95;1.77;;;27.20;99.90;;;;;;20657176;28;20058;-45
2021/08/12 14:00:29;;;;;;;4.00;1.65;;;26.10;99.90;;;;;;20654454;28;20046;-46
2021/08/12 14:10:50;;;;;;;8.77;1.70;;;26.00;99.90;;;;;;20660576;28;20050;-46
2021/08/12 14:21:13;;;;;;;3.50;1.70;;;25.60;99.90;;;;;;20660692;28;20057;-46
2021/08/12 14:31:34;;;;;;;3.67;1.67;;;25.60;99.90;;;;;;20663761;28;20502;-46
2021/08/12 14:41:56;;;;;;;2.83;1.25;;;25.70;99.90;;;;;;20662289;28;20141;-45
2021/08/12 14:52:17;;;;;;;3.15;1.63;;;25.50;99.90;;;;;;20664399;28;20505;-45
2021/08/12 15:02:39;;;;;;;4.18;1.42;;;25.30;99.90;;;;;;20663156;28;20135;-46
2021/08/12 15:13:00;;;;;;;4.70;1.95;;;25.10;99.90;;;;;;20669897;28;20037;-45
2021/08/12 15:23:22;;;;;;;3.75;1.60;;;25.00;99.90;;;;;;20667911;28;20129;-45
2021/08/12 15:33:43;;;;;;;4.18;1.58;;;25.30;99.90;;;;;;20668667;28;20034;-45
2021/08/12 15:44:05;;;;;;;2.80;1.50;;;25.40;99.90;;;;;;20665776;28;20517;-46
2021/08/12 15:54:29;;;;;;;4.65;1.50;;;25.00;99.90;;;;;;20667773;28;20442;-45
2021/08/12 16:04:50;;;;;;;2.70;1.38;;;24.90;99.90;;;;;;20670922;28;20022;-45
2021/08/12 16:15:12;;;;;;;3.90;1.98;;;24.60;99.90;;;;;;20673423;28;20147;-45
2021/08/12 16:25:34;;;;;;;3.47;1.90;;;24.50;99.90;;;;;;20687623;28;20513;-46
2021/08/12 16:35:55;;;;;;;3.70;2.08;;;24.30;99.90;;;;;;20684765;28;20577;-45
2021/08/12 16:46:17;;;;;;;3.25;1.63;;;24.30;99.90;;;;;;20690707;28;20042;-46
2021/08/12 16:56:38;;;;;;;3.53;1.70;;;24.10;99.90;;;;;;20677075;28;20065;-45
2021/08/12 17:06:59;;;;;;;3.97;1.95;;;23.90;99.90;;;;;;20686011;28;20064;-46
2021/08/12 17:17:21;;;;;;;4.60;1.70;;;23.80;99.90;;;;;;20678913;28;20069;-45
2021/08/12 17:27:42;;;;;;;4.45;1.77;;;23.60;99.90;;;;;;20680413;28;20038;-45
2021/08/12 17:38:04;;;;;;;5.13;2.10;;;23.20;99.90;;;;;;20674372;28;20121;-45
2021/08/12 17:48:25;;;;;;;3.53;1.65;;;23.20;99.90;;;;;;20688014;28;20034;-46
2021/08/12 17:58:47;;;;;;;3.65;1.65;;;23.00;99.90;;;;;;20612754;28;20082;-46
2021/08/12 18:09:08;;;;;;;7.22;1.45;;;22.80;99.90;;;;;;20644697;28;20045;-45
2021/08/12 18:19:30;;;;;;;7.72;1.75;;;22.60;99.90;;;;;;20636221;28;20124;-45
2021/08/12 18:29:52;;;;;;;5.55;1.20;;;22.40;99.90;;;;;;20622238;28;20034;-45
2021/08/12 18:40:14;;;;;;;2.78;1.50;;;22.10;99.90;;;;;;20620313;28;20070;-45
2021/08/12 18:50:35;;;;;;;3.55;1.40;;;21.80;99.90;;;;;;20630589;28;20421;-45
2021/08/12 19:00:57;;;;;;;2.70;1.35;;;21.60;99.90;;;;;;20616653;28;20050;-45
2021/08/12 19:11:18;;;;;;;3.90;1.65;;;21.40;99.90;;;;;;20623216;28;20049;-45
2021/08/12 19:21:40;;;;;;;2.30;1.05;;;21.20;99.90;;;;;;20610200;28;20077;-45
2021/08/12 19:32:01;;;;;;;2.67;1.13;;;21.00;99.90;;;;;;20622682;28;20035;-45
2021/08/12 19:42:23;;;;;;;2.72;1.25;;;20.80;99.90;;;;;;20616157;28;20130;-45
2021/08/12 19:52:46;;;;;;;3.78;1.20;;;20.60;99.90;;;;;;20608517;28;20062;-45
2021/08/12 20:03:08;;;;;;;2.38;0.93;;;20.40;99.90;;;;;;20617529;28;20054;-45
2021/08/12 20:13:29;;;;;;;2.97;1.20;;;20.20;99.90;;;;;;20614637;28;20054;-44
2021/08/12 20:23:51;;;;;;;2.95;1.30;;;20.00;99.90;;;;;;20617352;28;20066;-45
2021/08/12 20:34:13;;;;;;;3.05;1.35;;;19.80;99.90;;;;;;20583283;28;20517;-45
2021/08/12 20:44:35;;;;;;;2.60;1.17;;;19.70;99.90;;;;;;20611673;28;20031;-44
2021/08/12 20:54:56;;;;;;;4.57;1.40;;;19.50;99.90;;;;;;20612219;28;20070;-44
2021/08/12 21:05:18;;;;;;;3.28;1.10;;;19.20;99.90;;;;;;20617108;28;20168;-44
2021/08/12 21:15:40;;;;;;;3.95;1.77;;;19.10;99.90;;;;;;20632411;28;20334;-44
2021/08/12 21:26:01;;;;;;;4.28;1.40;;;19.10;99.90;;;;;;20639016;28;20045;-44
2021/08/12 21:36:22;;;;;;;3.30;1.45;;;18.90;99.90;;;;;;20637786;28;20045;-44
2021/08/12 21:46:44;;;;;;;4.03;1.83;;;18.80;99.90;;;;;;20644407;28;20082;-44
2021/08/12 21:57:05;;;;;;;3.63;1.70;;;18.60;99.90;;;;;;20641645;28;20081;-44
2021/08/12 22:07:27;;;;;;;3.33;1.40;;;18.60;99.90;;;;;;20643812;28;20088;-44
2021/08/12 22:17:48;;;;;;;3.20;1.50;;;18.50;99.90;;;;;;20648697;28;20555;-44
2021/08/12 22:28:12;;;;;;;3.97;1.70;;;18.30;99.90;;;;;;20645202;28;20042;-44
2021/08/12 22:38:33;;;;;;;5.15;2.13;;;18.20;99.90;;;;;;20647187;28;20526;-44
2021/08/12 22:48:54;;;;;;;6.35;1.73;;;18.10;99.90;;;;;;20651193;28;20073;-44
2021/08/12 22:59:16;;;;;;;5.28;1.85;;;18.00;99.90;;;;;;20647090;28;20066;-45
2021/08/12 23:09:37;;;;;;;4.40;1.30;;;18.00;99.90;;;;;;20650880;28;20038;-44
2021/08/12 23:19:58;;;;;;;3.58;1.70;;;17.90;99.90;;;;;;20654733;28;20041;-44
2021/08/12 23:30:20;;;;;;;4.95;2.13;;;17.90;99.90;;;;;;20653543;28;20042;-44
2021/08/12 23:40:41;;;;;;;5.93;1.60;;;17.70;99.90;;;;;;20652429;28;20077;-44
2021/08/12 23:51:05;;;;;;;6.10;2.35;;;17.50;99.90;;;;;;20660046;28;20197;-44
